createdAt,value
2018-04-15T00:00:29.581Z,31.93
2018-04-15T00:02:55.824Z,32.43
2018-04-15T00:05:23.599Z,32.83
2018-04-15T00:07:50.609Z,35.33
2018-04-15T00:10:16.916Z,36.97
2018-04-15T00:12:43.164Z,32.47
2018-04-15T00:15:09.364Z,28.53
2018-04-15T00:17:35.565Z,32.30
2018-04-15T00:20:02.561Z,36.60
2018-04-15T00:22:28.779Z,32.93
2018-04-15T00:24:55.100Z,32.97
2018-04-15T00:27:21.310Z,34.17
2018-04-15T00:29:47.529Z,30.60
2018-04-15T00:32:14.484Z,36.47
2018-04-15T00:34:40.676Z,37.37
2018-04-15T00:37:06.932Z,35.57
2018-04-15T00:39:33.312Z,33.03
2018-04-15T00:41:59.745Z,34.27
2018-04-15T00:44:26.111Z,36.87
2018-04-15T00:46:53.116Z,31.47
2018-04-15T00:49:19.340Z,42.17
2018-04-15T00:51:45.657Z,39.80
2018-04-15T00:54:15.860Z,33.67
2018-04-15T00:56:42.082Z,39.50
2018-04-15T00:59:08.373Z,35.67
2018-04-15T01:01:34.584Z,38.13
2018-04-15T01:04:02.324Z,36.27
2018-04-15T01:06:29.498Z,31.20
2018-04-15T01:08:55.744Z,37.13
2018-04-15T01:11:22.007Z,36.97
2018-04-15T01:13:48.229Z,36.67
2018-04-15T01:16:15.187Z,40.17
2018-04-15T01:18:41.401Z,36.83
2018-04-15T01:21:07.683Z,39.13
2018-04-15T01:23:33.954Z,34.87
2018-04-15T01:26:00.387Z,37.80
2018-04-15T01:28:27.508Z,37.37
2018-04-15T01:30:54.456Z,37.57
2018-04-15T01:33:20.658Z,38.73
2018-04-15T01:35:46.865Z,40.57
2018-04-15T01:38:13.074Z,39.60
2018-04-15T01:40:39.331Z,54.33
2018-04-15T01:43:05.607Z,55.83
2018-04-15T01:45:32.884Z,63.73
2018-04-15T01:47:59.113Z,59.10
2018-04-15T01:50:25.346Z,56.67
2018-04-15T01:52:51.536Z,46.37
2018-04-15T01:55:17.767Z,39.53
2018-04-15T01:57:44.752Z,38.87
2018-04-15T02:00:10.978Z,30.90
2018-04-15T02:02:37.275Z,36.97
2018-04-15T02:05:03.549Z,32.87
2018-04-15T02:07:29.756Z,32.40
2018-04-15T02:09:55.946Z,28.63
2018-04-15T02:12:22.162Z,28.53
2018-04-15T02:14:48.378Z,30.50
2018-04-15T02:17:14.620Z,26.97
2018-04-15T02:19:40.886Z,28.47
2018-04-15T02:22:07.184Z,29.97
2018-04-15T02:24:33.391Z,24.87
2018-04-15T02:26:59.571Z,23.70
2018-04-15T02:29:25.826Z,24.57
2018-04-15T02:31:52.008Z,21.27
2018-04-15T02:34:19.144Z,22.27
2018-04-15T02:36:46.417Z,23.23
2018-04-15T02:39:12.799Z,21.77
2018-04-15T02:41:39.041Z,24.07
2018-04-15T02:44:05.288Z,22.40
2018-04-15T02:46:32.236Z,20.87
2018-04-15T02:48:59.190Z,23.50
2018-04-15T02:51:26.169Z,19.57
2018-04-15T02:53:52.499Z,21.17
2018-04-15T02:56:18.965Z,19.00
2018-04-15T02:58:45.157Z,15.87
2018-04-15T03:01:11.352Z,16.50
2018-04-15T03:03:38.431Z,17.70
2018-04-15T03:06:04.673Z,16.67
2018-04-15T03:08:30.948Z,16.00
2018-04-15T03:10:57.944Z,17.47
2018-04-15T03:13:24.202Z,18.53
2018-04-15T03:15:51.281Z,21.67
2018-04-15T03:18:17.500Z,21.40
2018-04-15T03:20:44.446Z,24.17
2018-04-15T03:23:11.812Z,19.03
2018-04-15T03:25:38.077Z,24.53
2018-04-15T03:28:04.305Z,24.93
2018-04-15T03:30:30.535Z,27.83
2018-04-15T03:32:56.792Z,25.33
2018-04-15T03:35:23.762Z,23.80
2018-04-15T03:37:50.024Z,25.90
2018-04-15T03:40:16.252Z,25.83
2018-04-15T03:42:42.436Z,24.47
2018-04-15T03:45:09.399Z,29.03
2018-04-15T03:47:35.674Z,29.70
2018-04-15T03:50:01.940Z,32.07
2018-04-15T03:52:28.936Z,33.53
2018-04-15T03:54:56.286Z,31.57
2018-04-15T03:57:29.379Z,28.33
2018-04-15T03:59:55.600Z,25.13
2018-04-15T04:02:21.827Z,24.43
2018-04-15T04:04:48.028Z,24.97
2018-04-15T04:07:14.245Z,23.90
2018-04-15T04:09:41.184Z,22.57
2018-04-15T04:12:08.144Z,23.07
2018-04-15T04:14:34.399Z,19.97
2018-04-15T04:17:00.657Z,21.53
2018-04-15T04:19:39.404Z,21.37
2018-04-15T04:22:18.738Z,19.47
2018-04-15T04:25:09.832Z,23.67
2018-04-15T04:27:36.838Z,21.40
2018-04-15T04:30:03.150Z,21.57
2018-04-15T04:32:29.415Z,20.43
2018-04-15T04:34:55.643Z,23.60
2018-04-15T04:37:21.845Z,20.87
2018-04-15T04:39:48.056Z,21.37
2018-04-15T04:42:14.285Z,23.83
2018-04-15T04:44:40.486Z,17.70
2018-04-15T04:47:07.712Z,17.83
2018-04-15T04:49:34.068Z,19.43
2018-04-15T04:52:01.053Z,19.10
2018-04-15T04:54:27.289Z,18.03
2018-04-15T04:56:53.499Z,16.80
2018-04-15T04:59:19.722Z,16.97
2018-04-15T05:01:45.937Z,16.17
2018-04-15T05:04:12.925Z,16.30
2018-04-15T05:06:39.227Z,14.73
2018-04-15T05:09:05.477Z,10.77
2018-04-15T05:11:31.679Z,11.43
2018-04-15T05:14:05.015Z,10.57
2018-04-15T05:16:31.227Z,11.77
2018-04-15T05:18:57.432Z,12.53
2018-04-15T05:21:23.692Z,12.20
2018-04-15T05:23:49.890Z,13.87
2018-04-15T05:26:17.076Z,15.97
2018-04-15T05:28:44.934Z,15.57
2018-04-15T05:31:16.089Z,16.67
2018-04-15T05:33:42.556Z,18.80
2018-04-15T05:36:09.555Z,23.40
2018-04-15T05:38:35.800Z,22.33
2018-04-15T05:41:02.021Z,21.63
2018-04-15T05:43:28.277Z,16.87
2018-04-15T05:45:54.508Z,17.23
2018-04-15T05:48:21.470Z,17.57
2018-04-15T05:50:47.784Z,13.77
2018-04-15T05:53:15.488Z,14.70
2018-04-15T05:55:41.720Z,14.10
2018-04-15T05:58:07.957Z,17.07
2018-04-15T06:00:34.167Z,15.73
2018-04-15T06:03:00.372Z,17.83
2018-04-15T06:05:27.447Z,20.57
2018-04-15T06:07:53.686Z,16.47
2018-04-15T06:10:20.272Z,18.20
2018-04-15T06:12:46.537Z,20.13
2018-04-15T06:15:13.545Z,20.47
2018-04-15T06:17:40.505Z,23.00
2018-04-15T06:20:06.729Z,23.50
2018-04-15T06:22:32.992Z,26.50
2018-04-15T06:24:59.209Z,24.43
2018-04-15T06:27:25.535Z,28.07
2018-04-15T06:29:52.572Z,28.27
2018-04-15T06:32:19.020Z,24.90
2018-04-15T06:34:45.232Z,24.47
2018-04-15T06:37:11.452Z,23.70
2018-04-15T06:39:37.722Z,25.70
2018-04-15T06:42:03.958Z,21.53
2018-04-15T06:44:30.235Z,22.30
2018-04-15T06:46:56.651Z,21.40
2018-04-15T06:49:23.007Z,19.27
2018-04-15T06:51:49.273Z,20.77
2018-04-15T06:54:15.473Z,18.10
2018-04-15T06:56:41.692Z,20.20
2018-04-15T06:59:07.909Z,18.87
2018-04-15T07:01:34.283Z,19.77
2018-04-15T07:04:00.516Z,19.40
2018-04-15T07:06:27.616Z,21.03
2018-04-15T07:08:54.014Z,20.23
2018-04-15T07:11:20.342Z,18.57
2018-04-15T07:13:46.569Z,20.30
2018-04-15T07:16:12.769Z,18.17
2018-04-15T07:18:38.997Z,17.80
2018-04-15T07:21:05.284Z,17.17
2018-04-15T07:23:31.620Z,17.53
2018-04-15T07:25:58.552Z,15.93
2018-04-15T07:28:25.871Z,18.17
2018-04-15T07:30:52.099Z,14.90
2018-04-15T07:33:18.336Z,13.70
2018-04-15T07:35:44.676Z,12.30
2018-04-15T07:38:11.975Z,9.80
2018-04-15T07:40:39.115Z,9.20
2018-04-15T07:43:05.539Z,9.93
2018-04-15T07:45:32.961Z,8.97
2018-04-15T07:48:03.483Z,8.67
2018-04-15T07:50:30.011Z,8.60
2018-04-15T07:52:56.236Z,8.07
2018-04-15T07:55:22.586Z,8.53
2018-04-15T07:57:48.824Z,8.27
2018-04-15T08:00:15.854Z,6.80
2018-04-15T08:02:42.286Z,6.70
2018-04-15T08:05:08.647Z,5.77
2018-04-15T08:07:34.915Z,6.87
2018-04-15T08:10:01.182Z,6.67
2018-04-15T08:12:27.398Z,5.03
2018-04-15T08:14:53.630Z,6.23
2018-04-15T08:17:19.863Z,5.30
2018-04-15T08:19:46.966Z,5.63
2018-04-15T08:22:13.225Z,5.07
2018-04-15T08:24:39.621Z,5.77
2018-04-15T08:27:05.867Z,5.60
2018-04-15T08:29:32.251Z,6.17
2018-04-15T08:31:58.534Z,11.70
2018-04-15T08:34:24.759Z,7.23
2018-04-15T08:36:50.973Z,6.10
2018-04-15T08:39:17.274Z,6.13
2018-04-15T08:41:43.593Z,6.50
2018-04-15T08:44:09.832Z,7.00
2018-04-15T08:46:36.798Z,5.53
2018-04-15T08:49:03.109Z,5.23
2018-04-15T08:51:29.318Z,6.57
2018-04-15T08:53:56.285Z,4.77
2018-04-15T08:56:22.551Z,5.37
2018-04-15T08:58:48.861Z,4.33
2018-04-15T09:01:15.141Z,4.27
2018-04-15T09:03:41.345Z,4.50
2018-04-15T09:06:07.579Z,3.00
2018-04-15T09:08:33.888Z,3.50
2018-04-15T09:11:00.143Z,3.57
2018-04-15T09:13:27.124Z,2.60
2018-04-15T09:15:53.427Z,3.53
2018-04-15T09:18:20.484Z,3.20
2018-04-15T09:20:46.763Z,5.27
2018-04-15T09:23:13.034Z,3.40
2018-04-15T09:25:39.233Z,2.90
2018-04-15T09:28:05.454Z,3.27
2018-04-15T09:30:31.701Z,2.70
2018-04-15T09:32:57.948Z,2.60
2018-04-15T09:35:24.970Z,2.62
2018-04-15T09:37:51.300Z,2.42
2018-04-15T09:40:17.515Z,2.65
2018-04-15T09:42:43.756Z,3.22
2018-04-15T09:45:10.003Z,3.72
2018-04-15T09:47:36.972Z,2.30
2018-04-15T09:50:03.936Z,2.78
2018-04-15T09:52:30.301Z,2.80
2018-04-15T09:54:57.310Z,2.30
2018-04-15T09:57:23.617Z,3.78
2018-04-15T09:59:50.254Z,4.03
2018-04-15T10:02:17.248Z,3.93
2018-04-15T10:04:43.540Z,2.20
2018-04-15T10:07:09.806Z,2.67
2018-04-15T10:09:36.040Z,2.23
2018-04-15T10:12:02.300Z,2.47
2018-04-15T10:14:28.585Z,3.17
2018-04-15T10:16:55.647Z,2.53
2018-04-15T10:19:21.858Z,4.20
2018-04-15T10:21:48.124Z,3.27
2018-04-15T10:24:14.370Z,3.53
2018-04-15T10:26:40.561Z,3.00
2018-04-15T10:29:06.853Z,4.27
2018-04-15T10:31:33.093Z,2.70
2018-04-15T10:33:59.421Z,2.43
2018-04-15T10:36:25.656Z,2.40
2018-04-15T10:38:51.908Z,2.47
2018-04-15T10:41:18.136Z,2.13
2018-04-15T10:43:44.353Z,1.93
2018-04-15T10:46:10.588Z,3.33
2018-04-15T10:48:36.849Z,2.10
2018-04-15T10:51:03.367Z,2.40
2018-04-15T10:53:29.686Z,4.20
2018-04-15T10:55:55.888Z,2.17
2018-04-15T10:58:22.140Z,3.50
2018-04-15T11:00:48.353Z,2.57
2018-04-15T11:03:14.582Z,3.00
2018-04-15T11:05:40.870Z,3.67
2018-04-15T11:08:07.174Z,3.30
2018-04-15T11:10:33.399Z,3.40
2018-04-15T11:12:59.615Z,2.30
2018-04-15T11:15:25.844Z,2.50
2018-04-15T11:17:52.076Z,2.10
2018-04-15T11:20:18.300Z,2.33
2018-04-15T11:22:45.285Z,2.73
2018-04-15T11:25:11.568Z,3.07
2018-04-15T11:27:37.898Z,3.47
2018-04-15T11:30:04.136Z,1.77
2018-04-15T11:32:30.367Z,1.90
2018-04-15T11:34:56.615Z,1.93
2018-04-15T11:37:23.556Z,3.63
2018-04-15T11:39:50.506Z,2.47
2018-04-15T11:42:17.496Z,2.93
2018-04-15T11:44:43.805Z,2.20
2018-04-15T11:47:10.007Z,2.30
2018-04-15T11:49:36.988Z,3.03
2018-04-15T11:52:03.189Z,3.27
2018-04-15T11:54:29.424Z,2.47
2018-04-15T11:56:55.682Z,2.43
2018-04-15T11:59:21.905Z,4.10
2018-04-15T12:01:48.145Z,3.23
2018-04-15T12:04:14.569Z,4.47
2018-04-15T12:06:42.432Z,2.10
2018-04-15T12:09:08.648Z,3.40
2018-04-15T12:11:34.910Z,6.47
2018-04-15T12:14:01.937Z,2.70
2018-04-15T12:16:28.187Z,3.30
2018-04-15T12:18:54.444Z,2.20
2018-04-15T12:21:21.493Z,4.47
2018-04-15T12:23:48.519Z,5.93
2018-04-15T12:26:14.727Z,4.33
2018-04-15T12:28:40.984Z,3.53
2018-04-15T12:31:07.936Z,1.90
2018-04-15T12:33:35.292Z,2.67
2018-04-15T12:36:02.360Z,2.20
2018-04-15T12:38:28.587Z,2.33
2018-04-15T12:40:55.577Z,3.90
2018-04-15T12:43:21.934Z,2.60
2018-04-15T12:45:48.880Z,2.03
2018-04-15T12:48:15.832Z,2.87
2018-04-15T12:50:42.804Z,2.30
2018-04-15T12:53:09.018Z,1.87
2018-04-15T12:55:35.253Z,2.23
2018-04-15T12:58:01.481Z,2.03
2018-04-15T13:00:27.927Z,1.60
2018-04-15T13:02:54.297Z,2.50
2018-04-15T13:05:20.563Z,2.07
2018-04-15T13:07:46.816Z,4.00
2018-04-15T13:10:13.012Z,2.27
2018-04-15T13:12:39.247Z,1.70
2018-04-15T13:15:06.320Z,2.03
2018-04-15T13:17:33.320Z,4.27
2018-04-15T13:19:59.661Z,2.03
2018-04-15T13:22:26.054Z,2.77
2018-04-15T13:24:52.456Z,2.90
2018-04-15T13:27:18.668Z,2.50
2018-04-15T13:29:44.911Z,3.23
2018-04-15T13:32:11.231Z,3.43
2018-04-15T13:34:37.434Z,5.23
2018-04-15T13:37:04.417Z,3.77
2018-04-15T13:39:30.712Z,7.00
2018-04-15T13:41:56.947Z,4.57
2018-04-15T13:44:23.921Z,2.13
2018-04-15T13:46:50.146Z,2.97
2018-04-15T13:49:16.423Z,2.13
2018-04-15T13:51:44.115Z,2.57
2018-04-15T13:54:11.088Z,3.93
2018-04-15T13:56:37.414Z,2.37
2018-04-15T13:59:04.260Z,2.87
2018-04-15T14:01:30.445Z,3.40
2018-04-15T14:03:57.424Z,2.10
2018-04-15T14:06:23.684Z,4.93
2018-04-15T14:08:49.885Z,3.87
2018-04-15T14:11:16.139Z,5.27
2018-04-15T14:13:42.391Z,3.43
2018-04-15T14:16:08.680Z,3.97
2018-04-15T14:18:34.912Z,2.63
2018-04-15T14:21:01.964Z,2.07
2018-04-15T14:23:28.172Z,2.33
2018-04-15T14:25:54.986Z,2.70
2018-04-15T14:28:21.620Z,2.23
2018-04-15T14:30:48.031Z,3.73
2018-04-15T14:33:15.037Z,2.90
2018-04-15T14:35:41.848Z,2.70
2018-04-15T14:38:09.312Z,2.00
2018-04-15T14:40:35.551Z,3.13
2018-04-15T14:43:01.812Z,4.53
2018-04-15T14:45:28.020Z,7.83
2018-04-15T14:47:54.283Z,3.33
2018-04-15T14:50:21.228Z,3.50
2018-04-15T14:52:47.445Z,3.03
2018-04-15T14:55:13.701Z,2.13
2018-04-15T14:57:40.676Z,2.80
2018-04-15T15:00:07.373Z,4.57
2018-04-15T15:02:33.579Z,4.50
2018-04-15T15:04:59.800Z,3.77
2018-04-15T15:07:26.025Z,3.37
2018-04-15T15:09:52.364Z,2.73
2018-04-15T15:12:18.717Z,4.17
2018-04-15T15:14:45.028Z,2.43
2018-04-15T15:17:11.291Z,3.93
2018-04-15T15:19:38.358Z,3.33
2018-04-15T15:22:05.316Z,3.27
2018-04-15T15:24:31.563Z,3.50
2018-04-15T15:26:57.803Z,6.43
2018-04-15T15:29:24.074Z,2.50
2018-04-15T15:31:50.516Z,2.30
2018-04-15T15:34:16.815Z,3.50
2018-04-15T15:36:43.067Z,2.20
2018-04-15T15:39:09.297Z,4.83
2018-04-15T15:41:35.508Z,3.70
2018-04-15T15:44:02.477Z,3.03
2018-04-15T15:46:28.708Z,4.27
2018-04-15T15:48:55.035Z,2.13
2018-04-15T15:51:21.410Z,2.63
2018-04-15T15:53:47.677Z,2.70
2018-04-15T15:56:13.902Z,4.30
2018-04-15T15:58:40.115Z,3.77
2018-04-15T16:01:06.360Z,2.13
2018-04-15T16:03:33.328Z,5.43
2018-04-15T16:05:59.550Z,3.43
2018-04-15T16:08:25.801Z,3.77
2018-04-15T16:10:52.023Z,4.00
2018-04-15T16:13:18.239Z,7.63
2018-04-15T16:15:44.509Z,8.23
2018-04-15T16:18:10.790Z,5.57
2018-04-15T16:20:37.053Z,8.40
2018-04-15T16:23:03.369Z,9.57
2018-04-15T16:25:29.632Z,5.97
2018-04-15T16:27:55.935Z,8.83
2018-04-15T16:30:22.160Z,6.77
2018-04-15T16:32:48.404Z,10.17
2018-04-15T16:35:14.648Z,7.77
2018-04-15T16:37:42.320Z,5.70
2018-04-15T16:40:08.605Z,6.17
2018-04-15T16:42:34.947Z,7.40
2018-04-15T16:45:01.513Z,21.93
2018-04-15T16:47:27.986Z,22.87
2018-04-15T16:49:54.438Z,22.53
2018-04-15T16:52:20.649Z,9.30
2018-04-15T16:54:46.918Z,5.23
2018-04-15T16:57:14.736Z,3.23
2018-04-15T16:59:40.975Z,4.77
2018-04-15T17:02:07.249Z,3.73
2018-04-15T17:04:34.391Z,4.43
2018-04-15T17:07:00.968Z,4.43
2018-04-15T17:09:27.192Z,2.73
2018-04-15T17:11:53.405Z,2.50
2018-04-15T17:14:20.439Z,2.93
2018-04-15T17:16:46.663Z,3.57
2018-04-15T17:19:13.190Z,4.00
2018-04-15T17:21:39.413Z,3.00
2018-04-15T17:24:06.400Z,5.03
2018-04-15T17:26:32.701Z,3.83
2018-04-15T17:28:58.923Z,3.03
2018-04-15T17:31:25.163Z,3.83
2018-04-15T17:33:51.402Z,4.50
2018-04-15T17:36:18.682Z,3.20
2018-04-15T17:38:45.188Z,3.10
2018-04-15T17:41:11.539Z,4.20
2018-04-15T17:43:37.769Z,2.80
2018-04-15T17:46:04.019Z,3.17
2018-04-15T17:48:30.248Z,2.90
2018-04-15T17:50:56.553Z,3.87
2018-04-15T17:53:22.796Z,2.50
2018-04-15T17:55:49.027Z,3.87
2018-04-15T17:58:15.376Z,2.97
2018-04-15T18:00:41.910Z,2.93
2018-04-15T18:03:08.160Z,2.60
2018-04-15T18:05:34.490Z,4.23
2018-04-15T18:08:00.717Z,2.80
2018-04-15T18:10:26.976Z,3.50
2018-04-15T18:12:53.216Z,4.00
2018-04-15T18:15:19.481Z,3.23
2018-04-15T18:17:45.916Z,4.63
2018-04-15T18:20:12.186Z,3.97
2018-04-15T18:22:39.181Z,4.17
2018-04-15T18:25:05.482Z,3.70
2018-04-15T18:27:32.551Z,4.77
2018-04-15T18:29:58.777Z,5.90
2018-04-15T18:32:25.072Z,5.77
2018-04-15T18:34:51.590Z,3.70
2018-04-15T18:37:17.995Z,6.93
2018-04-15T18:39:44.301Z,5.80
2018-04-15T18:42:10.547Z,5.63
2018-04-15T18:44:36.786Z,4.63
2018-04-15T18:47:03.006Z,5.23
2018-04-15T18:49:29.237Z,6.17
2018-04-15T18:51:55.605Z,5.77
2018-04-15T18:54:22.156Z,7.17
2018-04-15T18:56:48.428Z,5.93
2018-04-15T18:59:14.851Z,6.93
2018-04-15T19:01:41.069Z,8.07
2018-04-15T19:04:07.566Z,5.83
2018-04-15T19:06:34.510Z,5.20
2018-04-15T19:09:00.829Z,5.27
2018-04-15T19:11:27.851Z,6.00
2018-04-15T19:13:54.910Z,8.70
2018-04-15T19:16:21.233Z,8.30
2018-04-15T19:18:47.657Z,5.93
2018-04-15T19:21:13.975Z,6.90
2018-04-15T19:23:40.205Z,9.77
2018-04-15T19:26:06.449Z,9.30
2018-04-15T19:28:32.954Z,9.43
2018-04-15T19:30:59.359Z,13.30
2018-04-15T19:33:33.457Z,7.03
2018-04-15T19:36:00.338Z,7.83
2018-04-15T19:38:27.601Z,4.80
2018-04-15T19:41:01.764Z,11.80
2018-04-15T19:43:28.108Z,7.97
2018-04-15T19:45:54.336Z,7.70
2018-04-15T19:48:20.690Z,7.87
2018-04-15T19:50:46.944Z,6.20
2018-04-15T19:53:13.184Z,7.93
2018-04-15T19:55:39.417Z,5.77
2018-04-15T19:58:06.398Z,5.10
2018-04-15T20:00:32.802Z,7.33
2018-04-15T20:02:59.096Z,11.33
2018-04-15T20:05:25.327Z,8.07
2018-04-15T20:07:51.541Z,8.50
2018-04-15T20:10:18.227Z,6.90
2018-04-15T20:12:45.809Z,8.87
2018-04-15T20:15:13.015Z,9.00
2018-04-15T20:17:39.359Z,6.07
2018-04-15T20:20:06.374Z,6.47
2018-04-15T20:22:32.855Z,9.40
2018-04-15T20:24:59.126Z,7.93
2018-04-15T20:27:25.406Z,12.60
2018-04-15T20:29:51.652Z,8.57
2018-04-15T20:32:18.640Z,8.67
2018-04-15T20:34:44.906Z,9.93
2018-04-15T20:37:11.901Z,10.23
2018-04-15T20:39:38.255Z,10.50
2018-04-15T20:42:04.503Z,9.00
2018-04-15T20:44:30.779Z,8.03
2018-04-15T20:46:57.173Z,11.00
2018-04-15T20:49:24.121Z,12.00
2018-04-15T20:51:51.085Z,10.50
2018-04-15T20:54:17.332Z,10.00
2018-04-15T20:56:43.665Z,10.20
2018-04-15T20:59:09.958Z,12.30
2018-04-15T21:01:36.196Z,9.57
2018-04-15T21:04:02.498Z,9.60
2018-04-15T21:06:29.585Z,7.80
2018-04-15T21:08:55.833Z,12.63
2018-04-15T21:11:22.084Z,10.93
2018-04-15T21:13:48.412Z,10.13
2018-04-15T21:16:14.698Z,8.50
2018-04-15T21:18:40.984Z,9.03
2018-04-15T21:21:08.018Z,9.80
2018-04-15T21:23:34.276Z,9.17
2018-04-15T21:26:01.330Z,8.13
2018-04-15T21:28:27.576Z,6.50
2018-04-15T21:30:53.845Z,8.70
2018-04-15T21:33:20.096Z,9.03
2018-04-15T21:35:46.349Z,10.90
2018-04-15T21:38:12.632Z,7.10
2018-04-15T21:40:38.925Z,8.03
2018-04-15T21:43:05.218Z,12.00
2018-04-15T21:45:32.212Z,7.43
2018-04-15T21:47:58.446Z,10.30
2018-04-15T21:50:24.718Z,9.03
2018-04-15T21:52:51.806Z,9.10
2018-04-15T21:55:18.133Z,9.33
2018-04-15T21:57:44.535Z,6.23
2018-04-15T22:00:11.590Z,10.27
2018-04-15T22:02:37.841Z,8.33
2018-04-15T22:05:04.100Z,9.47
2018-04-15T22:07:30.308Z,7.67
2018-04-15T22:09:56.553Z,12.17
2018-04-15T22:12:22.911Z,8.77
2018-04-15T22:14:49.225Z,9.57
2018-04-15T22:17:16.329Z,7.90
2018-04-15T22:19:42.565Z,7.77
2018-04-15T22:22:08.808Z,10.70
2018-04-15T22:24:35.082Z,12.80
2018-04-15T22:27:02.117Z,10.23
2018-04-15T22:29:29.081Z,8.30
2018-04-15T22:31:58.382Z,8.03
2018-04-15T22:34:26.002Z,8.97
2018-04-15T22:36:52.260Z,11.77
2018-04-15T22:39:18.469Z,10.67
2018-04-15T22:41:44.734Z,9.00
2018-04-15T22:44:11.705Z,12.70
2018-04-15T22:46:38.012Z,10.80
2018-04-15T22:49:19.202Z,10.17
2018-04-15T22:51:45.462Z,12.03
2018-04-15T22:54:11.713Z,13.53
2018-04-15T22:56:42.953Z,11.43
2018-04-15T22:59:10.021Z,9.53
2018-04-15T23:01:37.044Z,8.83
2018-04-15T23:04:03.328Z,11.97
2018-04-15T23:06:29.635Z,8.50
2018-04-15T23:08:56.802Z,11.13
2018-04-15T23:11:23.095Z,12.07
2018-04-15T23:13:49.317Z,11.47
2018-04-15T23:16:15.607Z,12.37
2018-04-15T23:18:41.888Z,9.97
2018-04-15T23:21:08.845Z,8.23
2018-04-15T23:23:35.840Z,10.87
2018-04-15T23:26:02.132Z,9.73
2018-04-15T23:28:28.362Z,11.00
2018-04-15T23:30:54.576Z,10.93
2018-04-15T23:33:21.561Z,10.87
2018-04-15T23:35:47.808Z,8.23
2018-04-15T23:38:14.040Z,9.03
2018-04-15T23:40:40.279Z,11.30
2018-04-15T23:43:06.560Z,8.93
2018-04-15T23:45:32.787Z,10.03
2018-04-15T23:47:59.015Z,9.87
2018-04-15T23:50:25.251Z,9.73
2018-04-15T23:52:51.459Z,7.90
2018-04-15T23:55:17.727Z,10.80
2018-04-15T23:57:43.992Z,11.10
